sensor_id;sensor_type;location;lat;lon;timestamp;P1;durP1;ratioP1;P2;durP2;ratioP2
77432;SDS011;66752;48.576;8.876;2023-04-25T00:02:21;5.90;;;3.53;;
77432;SDS011;66752;48.576;8.876;2023-04-25T00:04:47;5.43;;;2.78;;
77432;SDS011;66752;48.576;8.876;2023-04-25T00:07:13;6.32;;;2.83;;
77432;SDS011;66752;48.576;8.876;2023-04-25T00:09:39;6.03;;;3.30;;
77432;SDS011;66752;48.576;8.876;2023-04-25T00:12:05;6.53;;;3.80;;
77432;SDS011;66752;48.576;8.876;2023-04-25T00:14:31;6.63;;;3.40;;
77432;SDS011;66752;48.576;8.876;2023-04-25T00:16:59;6.10;;;2.83;;
77432;SDS011;66752;48.576;8.876;2023-04-25T00:19:25;6.18;;;3.15;;
77432;SDS011;66752;48.576;8.876;2023-04-25T00:21:53;6.82;;;3.17;;
77432;SDS011;66752;48.576;8.876;2023-04-25T00:24:19;6.30;;;3.33;;
77432;SDS011;66752;48.576;8.876;2023-04-25T00:26:45;5.85;;;3.28;;
77432;SDS011;66752;48.576;8.876;2023-04-25T00:29:11;5.88;;;3.08;;
77432;SDS011;66752;48.576;8.876;2023-04-25T00:31:37;6.60;;;2.92;;
77432;SDS011;66752;48.576;8.876;2023-04-25T00:34:03;6.50;;;3.13;;
77432;SDS011;66752;48.576;8.876;2023-04-25T00:36:29;6.07;;;3.22;;
77432;SDS011;66752;48.576;8.876;2023-04-25T00:38:55;5.93;;;3.50;;
77432;SDS011;66752;48.576;8.876;2023-04-25T00:41:21;6.28;;;3.42;;
77432;SDS011;66752;48.576;8.876;2023-04-25T00:43:48;9.00;;;5.18;;
77432;SDS011;66752;48.576;8.876;2023-04-25T00:46:14;7.97;;;4.05;;
77432;SDS011;66752;48.576;8.876;2023-04-25T00:48:40;6.55;;;4.20;;
77432;SDS011;66752;48.576;8.876;2023-04-25T00:51:06;11.15;;;4.00;;
77432;SDS011;66752;48.576;8.876;2023-04-25T00:53:32;6.95;;;4.05;;
77432;SDS011;66752;48.576;8.876;2023-04-25T00:55:58;6.03;;;3.47;;
77432;SDS011;66752;48.576;8.876;2023-04-25T00:58:24;7.55;;;3.90;;
77432;SDS011;66752;48.576;8.876;2023-04-25T01:00:51;6.25;;;3.35;;
77432;SDS011;66752;48.576;8.876;2023-04-25T01:03:17;6.43;;;2.92;;
77432;SDS011;66752;48.576;8.876;2023-04-25T01:05:46;5.57;;;3.40;;
77432;SDS011;66752;48.576;8.876;2023-04-25T01:08:13;7.40;;;3.25;;
77432;SDS011;66752;48.576;8.876;2023-04-25T01:10:39;8.40;;;3.58;;
77432;SDS011;66752;48.576;8.876;2023-04-25T01:13:05;8.48;;;3.63;;
77432;SDS011;66752;48.576;8.876;2023-04-25T01:15:31;6.00;;;3.67;;
77432;SDS011;66752;48.576;8.876;2023-04-25T01:17:57;9.68;;;3.70;;
77432;SDS011;66752;48.576;8.876;2023-04-25T01:20:25;5.93;;;3.28;;
77432;SDS011;66752;48.576;8.876;2023-04-25T01:22:53;9.75;;;3.60;;
77432;SDS011;66752;48.576;8.876;2023-04-25T01:25:20;5.63;;;3.28;;
77432;SDS011;66752;48.576;8.876;2023-04-25T01:27:46;6.72;;;3.28;;
77432;SDS011;66752;48.576;8.876;2023-04-25T01:30:12;5.63;;;3.05;;
77432;SDS011;66752;48.576;8.876;2023-04-25T01:32:38;5.88;;;3.42;;
77432;SDS011;66752;48.576;8.876;2023-04-25T01:35:06;6.55;;;3.15;;
77432;SDS011;66752;48.576;8.876;2023-04-25T01:37:38;7.15;;;3.53;;
77432;SDS011;66752;48.576;8.876;2023-04-25T01:40:05;5.80;;;3.22;;
77432;SDS011;66752;48.576;8.876;2023-04-25T01:42:34;6.05;;;3.50;;
77432;SDS011;66752;48.576;8.876;2023-04-25T01:45:00;8.02;;;3.50;;
77432;SDS011;66752;48.576;8.876;2023-04-25T01:47:26;6.15;;;3.38;;
77432;SDS011;66752;48.576;8.876;2023-04-25T01:49:52;6.95;;;3.00;;
77432;SDS011;66752;48.576;8.876;2023-04-25T01:52:18;7.25;;;3.28;;
77432;SDS011;66752;48.576;8.876;2023-04-25T01:54:44;7.13;;;3.35;;
77432;SDS011;66752;48.576;8.876;2023-04-25T01:57:11;6.65;;;3.38;;
77432;SDS011;66752;48.576;8.876;2023-04-25T01:59:37;7.55;;;3.00;;
77432;SDS011;66752;48.576;8.876;2023-04-25T02:02:03;7.20;;;4.00;;
77432;SDS011;66752;48.576;8.876;2023-04-25T02:04:29;6.18;;;3.65;;
77432;SDS011;66752;48.576;8.876;2023-04-25T02:06:55;7.28;;;3.78;;
77432;SDS011;66752;48.576;8.876;2023-04-25T02:09:22;6.28;;;3.42;;
77432;SDS011;66752;48.576;8.876;2023-04-25T02:11:48;8.00;;;3.88;;
77432;SDS011;66752;48.576;8.876;2023-04-25T02:14:14;6.68;;;3.85;;
77432;SDS011;66752;48.576;8.876;2023-04-25T02:16:40;9.98;;;4.68;;
77432;SDS011;66752;48.576;8.876;2023-04-25T02:19:08;6.35;;;3.78;;
77432;SDS011;66752;48.576;8.876;2023-04-25T02:21:35;8.85;;;3.55;;
77432;SDS011;66752;48.576;8.876;2023-04-25T02:24:01;8.45;;;3.53;;
77432;SDS011;66752;48.576;8.876;2023-04-25T02:26:27;6.45;;;4.07;;
77432;SDS011;66752;48.576;8.876;2023-04-25T02:28:53;6.13;;;3.72;;
77432;SDS011;66752;48.576;8.876;2023-04-25T02:31:19;5.45;;;3.22;;
77432;SDS011;66752;48.576;8.876;2023-04-25T02:33:44;6.82;;;3.63;;
77432;SDS011;66752;48.576;8.876;2023-04-25T02:36:10;5.88;;;3.17;;
77432;SDS011;66752;48.576;8.876;2023-04-25T02:38:36;6.68;;;3.63;;
77432;SDS011;66752;48.576;8.876;2023-04-25T02:41:02;5.60;;;3.10;;
77432;SDS011;66752;48.576;8.876;2023-04-25T02:43:28;5.50;;;3.58;;
77432;SDS011;66752;48.576;8.876;2023-04-25T02:45:54;7.68;;;3.25;;
77432;SDS011;66752;48.576;8.876;2023-04-25T02:48:20;7.50;;;3.88;;
77432;SDS011;66752;48.576;8.876;2023-04-25T02:50:46;6.05;;;3.92;;
77432;SDS011;66752;48.576;8.876;2023-04-25T02:53:12;6.38;;;3.28;;
77432;SDS011;66752;48.576;8.876;2023-04-25T02:55:38;6.18;;;3.15;;
77432;SDS011;66752;48.576;8.876;2023-04-25T02:58:04;5.43;;;3.13;;
77432;SDS011;66752;48.576;8.876;2023-04-25T03:00:30;6.53;;;3.10;;
77432;SDS011;66752;48.576;8.876;2023-04-25T03:02:56;6.43;;;3.30;;
77432;SDS011;66752;48.576;8.876;2023-04-25T03:05:22;5.38;;;3.00;;
77432;SDS011;66752;48.576;8.876;2023-04-25T03:07:48;6.43;;;3.40;;
77432;SDS011;66752;48.576;8.876;2023-04-25T03:10:14;7.25;;;3.33;;
77432;SDS011;66752;48.576;8.876;2023-04-25T03:12:40;7.03;;;3.38;;
77432;SDS011;66752;48.576;8.876;2023-04-25T03:15:06;6.82;;;3.40;;
77432;SDS011;66752;48.576;8.876;2023-04-25T03:17:32;7.53;;;4.00;;
77432;SDS011;66752;48.576;8.876;2023-04-25T03:19:58;6.68;;;3.08;;
77432;SDS011;66752;48.576;8.876;2023-04-25T03:22:24;5.63;;;3.03;;
77432;SDS011;66752;48.576;8.876;2023-04-25T03:24:50;8.30;;;3.35;;
77432;SDS011;66752;48.576;8.876;2023-04-25T03:27:16;6.45;;;2.92;;
77432;SDS011;66752;48.576;8.876;2023-04-25T03:29:43;6.05;;;3.38;;
77432;SDS011;66752;48.576;8.876;2023-04-25T03:32:09;5.75;;;3.22;;
77432;SDS011;66752;48.576;8.876;2023-04-25T03:34:34;7.18;;;3.60;;
77432;SDS011;66752;48.576;8.876;2023-04-25T03:37:00;5.82;;;3.08;;
77432;SDS011;66752;48.576;8.876;2023-04-25T03:39:26;6.43;;;3.38;;
77432;SDS011;66752;48.576;8.876;2023-04-25T03:41:52;7.47;;;3.42;;
77432;SDS011;66752;48.576;8.876;2023-04-25T03:44:18;6.60;;;3.83;;
77432;SDS011;66752;48.576;8.876;2023-04-25T03:46:44;6.03;;;3.33;;
77432;SDS011;66752;48.576;8.876;2023-04-25T03:49:10;6.60;;;3.65;;
77432;SDS011;66752;48.576;8.876;2023-04-25T03:51:36;7.55;;;3.30;;
77432;SDS011;66752;48.576;8.876;2023-04-25T03:54:02;7.13;;;3.60;;
77432;SDS011;66752;48.576;8.876;2023-04-25T03:56:28;5.75;;;3.20;;
77432;SDS011;66752;48.576;8.876;2023-04-25T03:58:54;6.03;;;3.50;;
77432;SDS011;66752;48.576;8.876;2023-04-25T04:01:20;6.78;;;3.03;;
77432;SDS011;66752;48.576;8.876;2023-04-25T04:03:46;8.38;;;3.50;;
77432;SDS011;66752;48.576;8.876;2023-04-25T04:06:12;6.75;;;3.35;;
77432;SDS011;66752;48.576;8.876;2023-04-25T04:08:38;11.23;;;3.30;;
77432;SDS011;66752;48.576;8.876;2023-04-25T04:11:04;5.85;;;3.03;;
77432;SDS011;66752;48.576;8.876;2023-04-25T04:13:30;7.57;;;3.33;;
77432;SDS011;66752;48.576;8.876;2023-04-25T04:15:56;6.45;;;3.05;;
77432;SDS011;66752;48.576;8.876;2023-04-25T04:18:22;5.88;;;3.28;;
77432;SDS011;66752;48.576;8.876;2023-04-25T04:20:48;6.22;;;3.40;;
77432;SDS011;66752;48.576;8.876;2023-04-25T04:23:14;6.55;;;2.95;;
77432;SDS011;66752;48.576;8.876;2023-04-25T04:25:40;5.95;;;3.33;;
77432;SDS011;66752;48.576;8.876;2023-04-25T04:28:06;6.70;;;3.60;;
77432;SDS011;66752;48.576;8.876;2023-04-25T04:30:33;8.73;;;4.32;;
77432;SDS011;66752;48.576;8.876;2023-04-25T04:33:01;6.72;;;3.50;;
77432;SDS011;66752;48.576;8.876;2023-04-25T04:35:27;7.38;;;3.42;;
77432;SDS011;66752;48.576;8.876;2023-04-25T04:37:53;5.43;;;2.72;;
77432;SDS011;66752;48.576;8.876;2023-04-25T04:40:20;5.28;;;2.97;;
77432;SDS011;66752;48.576;8.876;2023-04-25T04:42:47;7.38;;;3.13;;
77432;SDS011;66752;48.576;8.876;2023-04-25T04:45:13;5.20;;;2.78;;
77432;SDS011;66752;48.576;8.876;2023-04-25T04:47:39;7.53;;;3.45;;
77432;SDS011;66752;48.576;8.876;2023-04-25T04:50:06;8.88;;;3.40;;
77432;SDS011;66752;48.576;8.876;2023-04-25T04:52:34;6.78;;;3.35;;
77432;SDS011;66752;48.576;8.876;2023-04-25T04:55:00;7.72;;;3.08;;
77432;SDS011;66752;48.576;8.876;2023-04-25T04:57:27;5.78;;;3.30;;
77432;SDS011;66752;48.576;8.876;2023-04-25T04:59:53;13.23;;;7.07;;
77432;SDS011;66752;48.576;8.876;2023-04-25T05:02:19;11.77;;;6.20;;
77432;SDS011;66752;48.576;8.876;2023-04-25T05:04:45;9.35;;;5.22;;
77432;SDS011;66752;48.576;8.876;2023-04-25T05:07:11;9.88;;;6.38;;
77432;SDS011;66752;48.576;8.876;2023-04-25T05:09:37;12.85;;;7.03;;
77432;SDS011;66752;48.576;8.876;2023-04-25T05:12:03;12.05;;;6.20;;
77432;SDS011;66752;48.576;8.876;2023-04-25T05:14:29;11.45;;;6.03;;
77432;SDS011;66752;48.576;8.876;2023-04-25T05:16:55;8.38;;;4.38;;
77432;SDS011;66752;48.576;8.876;2023-04-25T05:19:21;7.72;;;4.45;;
77432;SDS011;66752;48.576;8.876;2023-04-25T05:21:48;10.77;;;4.75;;
77432;SDS011;66752;48.576;8.876;2023-04-25T05:24:14;12.70;;;6.18;;
77432;SDS011;66752;48.576;8.876;2023-04-25T05:26:40;10.27;;;5.05;;
77432;SDS011;66752;48.576;8.876;2023-04-25T05:29:06;8.50;;;4.25;;
77432;SDS011;66752;48.576;8.876;2023-04-25T05:31:32;8.40;;;3.55;;
77432;SDS011;66752;48.576;8.876;2023-04-25T05:33:58;6.60;;;3.33;;
77432;SDS011;66752;48.576;8.876;2023-04-25T05:36:25;6.95;;;3.47;;
77432;SDS011;66752;48.576;8.876;2023-04-25T05:38:51;5.97;;;3.17;;
77432;SDS011;66752;48.576;8.876;2023-04-25T05:41:17;6.35;;;3.10;;
77432;SDS011;66752;48.576;8.876;2023-04-25T05:43:42;6.25;;;3.30;;
77432;SDS011;66752;48.576;8.876;2023-04-25T05:46:10;6.55;;;3.20;;
77432;SDS011;66752;48.576;8.876;2023-04-25T05:48:36;6.47;;;3.22;;
77432;SDS011;66752;48.576;8.876;2023-04-25T05:51:02;6.13;;;2.83;;
77432;SDS011;66752;48.576;8.876;2023-04-25T05:53:28;8.20;;;3.80;;
77432;SDS011;66752;48.576;8.876;2023-04-25T05:55:54;7.20;;;3.30;;
77432;SDS011;66752;48.576;8.876;2023-04-25T05:58:20;5.85;;;2.90;;
77432;SDS011;66752;48.576;8.876;2023-04-25T06:00:46;5.85;;;3.33;;
77432;SDS011;66752;48.576;8.876;2023-04-25T06:03:12;6.25;;;3.13;;
77432;SDS011;66752;48.576;8.876;2023-04-25T06:05:41;8.43;;;3.05;;
77432;SDS011;66752;48.576;8.876;2023-04-25T06:08:07;5.50;;;2.97;;
77432;SDS011;66752;48.576;8.876;2023-04-25T06:10:33;6.13;;;2.95;;
77432;SDS011;66752;48.576;8.876;2023-04-25T06:12:59;5.55;;;2.83;;
77432;SDS011;66752;48.576;8.876;2023-04-25T06:15:25;5.85;;;3.13;;
77432;SDS011;66752;48.576;8.876;2023-04-25T06:17:51;9.55;;;2.78;;
77432;SDS011;66752;48.576;8.876;2023-04-25T06:20:17;5.30;;;2.47;;
77432;SDS011;66752;48.576;8.876;2023-04-25T06:22:44;6.65;;;2.80;;
77432;SDS011;66752;48.576;8.876;2023-04-25T06:25:10;7.15;;;3.15;;
77432;SDS011;66752;48.576;8.876;2023-04-25T06:27:36;6.30;;;2.78;;
77432;SDS011;66752;48.576;8.876;2023-04-25T06:30:02;8.32;;;3.10;;
77432;SDS011;66752;48.576;8.876;2023-04-25T06:32:29;7.13;;;3.83;;
77432;SDS011;66752;48.576;8.876;2023-04-25T06:34:55;6.88;;;3.28;;
77432;SDS011;66752;48.576;8.876;2023-04-25T06:37:21;6.22;;;3.05;;
77432;SDS011;66752;48.576;8.876;2023-04-25T06:39:47;6.07;;;3.00;;
77432;SDS011;66752;48.576;8.876;2023-04-25T06:42:13;8.73;;;3.10;;
77432;SDS011;66752;48.576;8.876;2023-04-25T06:44:39;7.05;;;2.88;;
77432;SDS011;66752;48.576;8.876;2023-04-25T06:47:05;4.95;;;2.78;;
77432;SDS011;66752;48.576;8.876;2023-04-25T06:49:31;7.03;;;3.15;;
77432;SDS011;66752;48.576;8.876;2023-04-25T06:51:57;9.27;;;3.30;;
77432;SDS011;66752;48.576;8.876;2023-04-25T06:54:23;6.55;;;2.90;;
77432;SDS011;66752;48.576;8.876;2023-04-25T06:56:50;5.82;;;2.83;;
77432;SDS011;66752;48.576;8.876;2023-04-25T06:59:15;5.55;;;2.95;;
77432;SDS011;66752;48.576;8.876;2023-04-25T07:01:41;5.95;;;2.33;;
77432;SDS011;66752;48.576;8.876;2023-04-25T07:04:07;5.88;;;3.00;;
77432;SDS011;66752;48.576;8.876;2023-04-25T07:06:33;5.78;;;2.92;;
77432;SDS011;66752;48.576;8.876;2023-04-25T07:09:02;8.15;;;3.60;;
77432;SDS011;66752;48.576;8.876;2023-04-25T07:11:29;6.28;;;2.75;;
77432;SDS011;66752;48.576;8.876;2023-04-25T07:13:55;6.28;;;3.38;;
77432;SDS011;66752;48.576;8.876;2023-04-25T07:16:21;7.38;;;3.38;;
77432;SDS011;66752;48.576;8.876;2023-04-25T07:18:47;7.32;;;3.38;;
77432;SDS011;66752;48.576;8.876;2023-04-25T07:21:13;6.40;;;3.05;;
77432;SDS011;66752;48.576;8.876;2023-04-25T07:23:39;6.43;;;3.30;;
77432;SDS011;66752;48.576;8.876;2023-04-25T07:26:05;6.63;;;3.13;;
77432;SDS011;66752;48.576;8.876;2023-04-25T07:28:31;6.47;;;3.55;;
77432;SDS011;66752;48.576;8.876;2023-04-25T07:30:57;10.90;;;5.72;;
77432;SDS011;66752;48.576;8.876;2023-04-25T07:33:23;10.80;;;5.60;;
77432;SDS011;66752;48.576;8.876;2023-04-25T07:35:49;6.55;;;3.15;;
77432;SDS011;66752;48.576;8.876;2023-04-25T07:38:15;8.68;;;3.80;;
77432;SDS011;66752;48.576;8.876;2023-04-25T07:40:41;6.68;;;3.10;;
77432;SDS011;66752;48.576;8.876;2023-04-25T07:43:07;6.45;;;2.88;;
77432;SDS011;66752;48.576;8.876;2023-04-25T07:45:33;6.65;;;3.20;;
77432;SDS011;66752;48.576;8.876;2023-04-25T07:47:59;6.70;;;2.75;;
77432;SDS011;66752;48.576;8.876;2023-04-25T07:50:25;9.23;;;3.70;;
77432;SDS011;66752;48.576;8.876;2023-04-25T07:57:44;7.70;;;3.88;;
77432;SDS011;66752;48.576;8.876;2023-04-25T08:00:10;7.57;;;3.75;;
77432;SDS011;66752;48.576;8.876;2023-04-25T08:02:36;7.53;;;3.13;;
77432;SDS011;66752;48.576;8.876;2023-04-25T08:05:02;6.85;;;3.45;;
77432;SDS011;66752;48.576;8.876;2023-04-25T08:07:28;7.97;;;3.55;;
77432;SDS011;66752;48.576;8.876;2023-04-25T08:09:54;6.30;;;3.03;;
77432;SDS011;66752;48.576;8.876;2023-04-25T08:12:20;6.22;;;3.15;;
77432;SDS011;66752;48.576;8.876;2023-04-25T08:14:46;6.13;;;3.13;;
77432;SDS011;66752;48.576;8.876;2023-04-25T08:17:12;6.22;;;3.45;;
77432;SDS011;66752;48.576;8.876;2023-04-25T08:19:38;7.13;;;3.35;;
77432;SDS011;66752;48.576;8.876;2023-04-25T08:22:04;7.60;;;3.17;;
77432;SDS011;66752;48.576;8.876;2023-04-25T08:24:30;5.63;;;2.90;;
77432;SDS011;66752;48.576;8.876;2023-04-25T08:26:56;5.85;;;3.15;;
77432;SDS011;66752;48.576;8.876;2023-04-25T08:29:23;5.95;;;2.90;;
77432;SDS011;66752;48.576;8.876;2023-04-25T08:34:17;6.10;;;2.90;;
77432;SDS011;66752;48.576;8.876;2023-04-25T08:36:44;6.03;;;2.85;;
77432;SDS011;66752;48.576;8.876;2023-04-25T08:39:10;6.18;;;2.83;;
77432;SDS011;66752;48.576;8.876;2023-04-25T08:41:37;5.70;;;2.97;;
77432;SDS011;66752;48.576;8.876;2023-04-25T08:44:04;6.80;;;2.80;;
77432;SDS011;66752;48.576;8.876;2023-04-25T08:46:30;4.95;;;2.33;;
77432;SDS011;66752;48.576;8.876;2023-04-25T08:49:01;6.82;;;3.17;;
77432;SDS011;66752;48.576;8.876;2023-04-25T08:51:27;6.70;;;3.15;;
77432;SDS011;66752;48.576;8.876;2023-04-25T08:53:55;6.30;;;2.97;;
77432;SDS011;66752;48.576;8.876;2023-04-25T08:56:21;6.07;;;3.10;;
77432;SDS011;66752;48.576;8.876;2023-04-25T08:58:48;5.10;;;2.65;;
77432;SDS011;66752;48.576;8.876;2023-04-25T09:01:17;5.95;;;2.67;;
77432;SDS011;66752;48.576;8.876;2023-04-25T09:03:44;6.38;;;2.60;;
77432;SDS011;66752;48.576;8.876;2023-04-25T09:06:12;5.28;;;2.05;;
77432;SDS011;66752;48.576;8.876;2023-04-25T09:08:38;4.50;;;1.98;;
77432;SDS011;66752;48.576;8.876;2023-04-25T09:11:06;4.47;;;1.70;;
77432;SDS011;66752;48.576;8.876;2023-04-25T09:15:58;5.15;;;1.45;;
77432;SDS011;66752;48.576;8.876;2023-04-25T09:18:31;4.13;;;1.45;;
77432;SDS011;66752;48.576;8.876;2023-04-25T09:21:07;2.55;;;1.00;;
77432;SDS011;66752;48.576;8.876;2023-04-25T09:23:40;3.25;;;0.93;;
77432;SDS011;66752;48.576;8.876;2023-04-25T09:26:07;2.85;;;1.10;;
77432;SDS011;66752;48.576;8.876;2023-04-25T09:28:34;2.60;;;0.90;;
77432;SDS011;66752;48.576;8.876;2023-04-25T09:31:00;4.18;;;1.10;;
77432;SDS011;66752;48.576;8.876;2023-04-25T09:33:30;2.97;;;0.90;;
77432;SDS011;66752;48.576;8.876;2023-04-25T09:36:01;2.70;;;1.00;;
77432;SDS011;66752;48.576;8.876;2023-04-25T09:38:27;3.00;;;1.20;;
77432;SDS011;66752;48.576;8.876;2023-04-25T09:40:55;2.75;;;0.77;;
77432;SDS011;66752;48.576;8.876;2023-04-25T09:43:21;2.30;;;0.85;;
77432;SDS011;66752;48.576;8.876;2023-04-25T09:45:48;1.75;;;0.60;;
77432;SDS011;66752;48.576;8.876;2023-04-25T09:48:17;2.20;;;1.13;;
77432;SDS011;66752;48.576;8.876;2023-04-25T09:50:44;4.47;;;0.90;;
77432;SDS011;66752;48.576;8.876;2023-04-25T09:53:11;0.85;;;0.47;;
77432;SDS011;66752;48.576;8.876;2023-04-25T09:55:37;1.58;;;0.50;;
77432;SDS011;66752;48.576;8.876;2023-04-25T09:58:04;1.80;;;0.70;;
77432;SDS011;66752;48.576;8.876;2023-04-25T10:00:32;1.75;;;0.60;;
77432;SDS011;66752;48.576;8.876;2023-04-25T10:02:59;2.80;;;0.82;;
77432;SDS011;66752;48.576;8.876;2023-04-25T10:05:26;2.28;;;0.68;;
77432;SDS011;66752;48.576;8.876;2023-04-25T10:07:53;2.58;;;0.70;;
77432;SDS011;66752;48.576;8.876;2023-04-25T10:10:20;1.92;;;0.80;;
77432;SDS011;66752;48.576;8.876;2023-04-25T10:12:50;2.38;;;0.82;;
77432;SDS011;66752;48.576;8.876;2023-04-25T10:15:16;1.27;;;0.50;;
77432;SDS011;66752;48.576;8.876;2023-04-25T10:17:43;2.78;;;1.05;;
77432;SDS011;66752;48.576;8.876;2023-04-25T10:20:09;3.25;;;1.02;;
77432;SDS011;66752;48.576;8.876;2023-04-25T10:22:42;2.42;;;0.70;;
77432;SDS011;66752;48.576;8.876;2023-04-25T10:25:10;3.15;;;0.90;;
77432;SDS011;66752;48.576;8.876;2023-04-25T10:27:36;2.70;;;1.00;;
77432;SDS011;66752;48.576;8.876;2023-04-25T10:32:30;1.85;;;0.52;;
77432;SDS011;66752;48.576;8.876;2023-04-25T10:34:56;2.83;;;0.80;;
77432;SDS011;66752;48.576;8.876;2023-04-25T10:37:22;4.50;;;1.70;;
77432;SDS011;66752;48.576;8.876;2023-04-25T10:39:50;2.95;;;0.98;;
77432;SDS011;66752;48.576;8.876;2023-04-25T10:42:18;9.82;;;3.90;;
77432;SDS011;66752;48.576;8.876;2023-04-25T10:45:00;4.38;;;1.45;;
77432;SDS011;66752;48.576;8.876;2023-04-25T10:47:43;3.55;;;1.55;;
77432;SDS011;66752;48.576;8.876;2023-04-25T10:50:13;1.60;;;0.65;;
77432;SDS011;66752;48.576;8.876;2023-04-25T10:52:41;2.80;;;1.00;;
77432;SDS011;66752;48.576;8.876;2023-04-25T10:55:07;5.03;;;1.17;;
77432;SDS011;66752;48.576;8.876;2023-04-25T11:02:36;4.13;;;1.85;;
77432;SDS011;66752;48.576;8.876;2023-04-25T11:05:02;2.08;;;0.90;;
77432;SDS011;66752;48.576;8.876;2023-04-25T11:10:02;2.33;;;0.80;;
77432;SDS011;66752;48.576;8.876;2023-04-25T11:12:29;2.53;;;0.80;;
77432;SDS011;66752;48.576;8.876;2023-04-25T11:15:14;2.42;;;0.80;;
77432;SDS011;66752;48.576;8.876;2023-04-25T11:17:40;2.45;;;0.65;;
77432;SDS011;66752;48.576;8.876;2023-04-25T11:20:07;1.95;;;0.60;;
77432;SDS011;66752;48.576;8.876;2023-04-25T11:22:36;2.47;;;0.70;;
77432;SDS011;66752;48.576;8.876;2023-04-25T11:25:06;2.38;;;0.80;;
77432;SDS011;66752;48.576;8.876;2023-04-25T11:27:32;2.47;;;0.73;;
77432;SDS011;66752;48.576;8.876;2023-04-25T11:29:58;3.90;;;0.93;;
77432;SDS011;66752;48.576;8.876;2023-04-25T11:32:24;1.88;;;0.75;;
77432;SDS011;66752;48.576;8.876;2023-04-25T11:34:50;3.17;;;0.98;;
77432;SDS011;66752;48.576;8.876;2023-04-25T11:37:16;3.25;;;1.25;;
77432;SDS011;66752;48.576;8.876;2023-04-25T11:39:42;2.70;;;1.10;;
77432;SDS011;66752;48.576;8.876;2023-04-25T11:44:35;5.85;;;1.42;;
77432;SDS011;66752;48.576;8.876;2023-04-25T11:47:00;3.13;;;1.13;;
77432;SDS011;66752;48.576;8.876;2023-04-25T11:49:30;2.42;;;0.77;;
77432;SDS011;66752;48.576;8.876;2023-04-25T11:51:56;2.47;;;0.82;;
77432;SDS011;66752;48.576;8.876;2023-04-25T11:54:22;1.67;;;0.68;;
77432;SDS011;66752;48.576;8.876;2023-04-25T11:56:48;2.60;;;0.93;;
77432;SDS011;66752;48.576;8.876;2023-04-25T11:59:14;3.20;;;0.80;;
77432;SDS011;66752;48.576;8.876;2023-04-25T12:01:46;3.45;;;1.00;;
77432;SDS011;66752;48.576;8.876;2023-04-25T12:06:46;3.50;;;1.20;;
77432;SDS011;66752;48.576;8.876;2023-04-25T12:09:13;2.92;;;1.23;;
77432;SDS011;66752;48.576;8.876;2023-04-25T12:11:44;4.65;;;1.95;;
77432;SDS011;66752;48.576;8.876;2023-04-25T12:14:11;3.63;;;1.20;;
77432;SDS011;66752;48.576;8.876;2023-04-25T12:16:40;33.47;;;14.27;;
77432;SDS011;66752;48.576;8.876;2023-04-25T12:19:07;7.55;;;3.53;;
77432;SDS011;66752;48.576;8.876;2023-04-25T12:21:32;3.30;;;1.50;;
77432;SDS011;66752;48.576;8.876;2023-04-25T12:24:12;4.55;;;1.80;;
77432;SDS011;66752;48.576;8.876;2023-04-25T12:26:49;4.60;;;1.98;;
77432;SDS011;66752;48.576;8.876;2023-04-25T12:29:23;4.53;;;2.00;;
77432;SDS011;66752;48.576;8.876;2023-04-25T12:31:50;4.85;;;2.22;;
77432;SDS011;66752;48.576;8.876;2023-04-25T12:34:16;4.85;;;2.35;;
77432;SDS011;66752;48.576;8.876;2023-04-25T12:36:43;4.82;;;2.30;;
77432;SDS011;66752;48.576;8.876;2023-04-25T12:39:13;5.18;;;2.05;;
77432;SDS011;66752;48.576;8.876;2023-04-25T12:41:39;4.90;;;1.95;;
77432;SDS011;66752;48.576;8.876;2023-04-25T12:44:05;4.88;;;2.38;;
77432;SDS011;66752;48.576;8.876;2023-04-25T12:46:31;5.13;;;2.70;;
77432;SDS011;66752;48.576;8.876;2023-04-25T12:48:57;4.65;;;1.90;;
77432;SDS011;66752;48.576;8.876;2023-04-25T12:51:23;4.90;;;2.40;;
77432;SDS011;66752;48.576;8.876;2023-04-25T12:53:50;4.72;;;2.17;;
77432;SDS011;66752;48.576;8.876;2023-04-25T13:01:09;5.65;;;2.00;;
77432;SDS011;66752;48.576;8.876;2023-04-25T13:03:37;6.05;;;2.50;;
77432;SDS011;66752;48.576;8.876;2023-04-25T13:06:02;5.65;;;2.05;;
77432;SDS011;66752;48.576;8.876;2023-04-25T13:08:31;5.43;;;2.80;;
77432;SDS011;66752;48.576;8.876;2023-04-25T13:10:57;5.63;;;2.90;;
77432;SDS011;66752;48.576;8.876;2023-04-25T13:13:23;4.65;;;2.22;;
77432;SDS011;66752;48.576;8.876;2023-04-25T13:15:49;5.13;;;2.88;;
77432;SDS011;66752;48.576;8.876;2023-04-25T13:18:15;4.82;;;2.20;;
77432;SDS011;66752;48.576;8.876;2023-04-25T13:20:41;5.80;;;2.63;;
77432;SDS011;66752;48.576;8.876;2023-04-25T13:23:07;7.68;;;3.58;;
77432;SDS011;66752;48.576;8.876;2023-04-25T13:25:33;5.60;;;3.00;;
77432;SDS011;66752;48.576;8.876;2023-04-25T13:27:59;5.65;;;2.90;;
77432;SDS011;66752;48.576;8.876;2023-04-25T13:30:25;5.00;;;2.65;;
77432;SDS011;66752;48.576;8.876;2023-04-25T13:32:51;5.47;;;3.22;;
77432;SDS011;66752;48.576;8.876;2023-04-25T13:35:17;5.63;;;2.42;;
77432;SDS011;66752;48.576;8.876;2023-04-25T13:37:43;6.13;;;3.20;;
77432;SDS011;66752;48.576;8.876;2023-04-25T13:40:10;5.03;;;2.60;;
77432;SDS011;66752;48.576;8.876;2023-04-25T13:42:36;6.38;;;2.55;;
77432;SDS011;66752;48.576;8.876;2023-04-25T13:45:03;4.32;;;2.00;;
77432;SDS011;66752;48.576;8.876;2023-04-25T13:47:29;5.28;;;2.85;;
77432;SDS011;66752;48.576;8.876;2023-04-25T13:54:49;5.80;;;3.22;;
77432;SDS011;66752;48.576;8.876;2023-04-25T13:57:15;4.70;;;2.40;;
77432;SDS011;66752;48.576;8.876;2023-04-25T13:59:41;6.65;;;2.70;;
77432;SDS011;66752;48.576;8.876;2023-04-25T14:02:08;5.72;;;3.30;;
77432;SDS011;66752;48.576;8.876;2023-04-25T14:04:34;5.07;;;2.65;;
77432;SDS011;66752;48.576;8.876;2023-04-25T14:07:00;6.10;;;3.20;;
77432;SDS011;66752;48.576;8.876;2023-04-25T14:09:27;5.70;;;3.25;;
77432;SDS011;66752;48.576;8.876;2023-04-25T14:11:53;6.28;;;2.90;;
77432;SDS011;66752;48.576;8.876;2023-04-25T14:14:19;5.82;;;3.10;;
77432;SDS011;66752;48.576;8.876;2023-04-25T14:16:48;5.30;;;3.05;;
77432;SDS011;66752;48.576;8.876;2023-04-25T14:19:15;4.85;;;2.53;;
77432;SDS011;66752;48.576;8.876;2023-04-25T14:21:41;5.78;;;2.83;;
77432;SDS011;66752;48.576;8.876;2023-04-25T14:24:10;6.10;;;2.85;;
77432;SDS011;66752;48.576;8.876;2023-04-25T14:26:36;4.70;;;2.47;;
77432;SDS011;66752;48.576;8.876;2023-04-25T14:29:06;5.85;;;2.97;;
77432;SDS011;66752;48.576;8.876;2023-04-25T14:31:32;7.13;;;3.22;;
77432;SDS011;66752;48.576;8.876;2023-04-25T14:33:58;4.60;;;2.45;;
77432;SDS011;66752;48.576;8.876;2023-04-25T14:36:24;6.32;;;3.28;;
77432;SDS011;66752;48.576;8.876;2023-04-25T14:38:51;5.30;;;3.03;;
77432;SDS011;66752;48.576;8.876;2023-04-25T14:41:17;5.50;;;3.10;;
77432;SDS011;66752;48.576;8.876;2023-04-25T14:43:43;5.97;;;3.30;;
77432;SDS011;66752;48.576;8.876;2023-04-25T14:46:10;4.70;;;2.25;;
77432;SDS011;66752;48.576;8.876;2023-04-25T14:48:36;5.68;;;2.65;;
77432;SDS011;66752;48.576;8.876;2023-04-25T14:51:02;4.82;;;2.60;;
77432;SDS011;66752;48.576;8.876;2023-04-25T14:53:28;5.30;;;2.55;;
77432;SDS011;66752;48.576;8.876;2023-04-25T14:55:54;5.13;;;2.65;;
77432;SDS011;66752;48.576;8.876;2023-04-25T14:58:20;6.15;;;2.75;;
77432;SDS011;66752;48.576;8.876;2023-04-25T15:00:46;4.80;;;2.47;;
77432;SDS011;66752;48.576;8.876;2023-04-25T15:03:12;5.53;;;2.70;;
77432;SDS011;66752;48.576;8.876;2023-04-25T15:05:39;4.78;;;2.40;;
77432;SDS011;66752;48.576;8.876;2023-04-25T15:08:05;4.40;;;2.20;;
77432;SDS011;66752;48.576;8.876;2023-04-25T15:10:31;4.25;;;2.33;;
77432;SDS011;66752;48.576;8.876;2023-04-25T15:12:57;4.15;;;1.90;;
77432;SDS011;66752;48.576;8.876;2023-04-25T15:15:24;5.05;;;2.65;;
77432;SDS011;66752;48.576;8.876;2023-04-25T15:17:50;6.00;;;2.20;;
77432;SDS011;66752;48.576;8.876;2023-04-25T15:20:16;4.70;;;2.22;;